OJAQ/AQJ METAR and TAF weather

Enter ICAO airport designator
Station Type Date Time Source
OJAQ METAR 2020/06/06 00:00 UTC NOAA

OJAQ 060000Z 01008KT CAVOK 26/13 Q1010 NOSIG


Station Type Date Time Source
OJAQ Decoded METAR 2020/06/06 00:00 UTC NOAA

Aqaba Airport, Jordan (OJAQ) 29-38N 035-01E 51M
Jun 05, 2020 - 08:00 PM EDT / 2020.06.06 0000 UTC
Wind: from the N (010 degrees) at 9 MPH (8 KT):0
Visibility: greater than 7 mile(s):0
Temperature: 78 F (26 C)
Dew Point: 55 F (13 C)
Relative Humidity: 44%
Pressure (altimeter): 29.83 in. Hg (1010 hPa)
ob: OJAQ 060000Z 01008KT CAVOK 26/13 Q1010 NOSIG
cycle: 0

Station Type Date Time Source
OJAQ TAF 2020/06/05 18:13 UTC NOAA

TAF OJAQ 051604Z 0518/0624 36012KT 6000 NSC

Example: see airport list